sensor_id;sensor_type;location;lat;lon;timestamp;P1;durP1;ratioP1;P2;durP2;ratioP2
48516;SDS011;34310;51.904;4.256;2024-01-07T00:01:59;3.20;;;2.88;;
48516;SDS011;34310;51.904;4.256;2024-01-07T00:04:26;3.08;;;2.60;;
48516;SDS011;34310;51.904;4.256;2024-01-07T00:06:52;3.22;;;2.65;;
48516;SDS011;34310;51.904;4.256;2024-01-07T00:09:19;2.95;;;2.65;;
48516;SDS011;34310;51.904;4.256;2024-01-07T00:11:45;3.15;;;2.60;;
48516;SDS011;34310;51.904;4.256;2024-01-07T00:14:12;3.80;;;2.88;;
48516;SDS011;34310;51.904;4.256;2024-01-07T00:16:39;3.35;;;3.00;;
48516;SDS011;34310;51.904;4.256;2024-01-07T00:19:06;3.35;;;3.05;;
48516;SDS011;34310;51.904;4.256;2024-01-07T00:21:33;3.20;;;2.90;;
48516;SDS011;34310;51.904;4.256;2024-01-07T00:26:27;3.03;;;2.78;;
48516;SDS011;34310;51.904;4.256;2024-01-07T00:28:53;3.22;;;2.92;;
48516;SDS011;34310;51.904;4.256;2024-01-07T00:31:20;3.38;;;3.08;;
48516;SDS011;34310;51.904;4.256;2024-01-07T00:33:47;3.33;;;3.03;;
48516;SDS011;34310;51.904;4.256;2024-01-07T00:36:13;3.55;;;3.25;;
48516;SDS011;34310;51.904;4.256;2024-01-07T00:38:40;3.30;;;3.00;;
48516;SDS011;34310;51.904;4.256;2024-01-07T00:41:06;3.38;;;3.08;;
48516;SDS011;34310;51.904;4.256;2024-01-07T00:43:33;4.10;;;3.65;;
48516;SDS011;34310;51.904;4.256;2024-01-07T00:45:59;4.53;;;3.63;;
48516;SDS011;34310;51.904;4.256;2024-01-07T00:48:26;3.83;;;3.53;;
48516;SDS011;34310;51.904;4.256;2024-01-07T00:50:52;3.78;;;3.30;;
48516;SDS011;34310;51.904;4.256;2024-01-07T00:53:19;3.63;;;3.28;;
48516;SDS011;34310;51.904;4.256;2024-01-07T00:55:45;3.60;;;3.30;;
48516;SDS011;34310;51.904;4.256;2024-01-07T00:58:12;3.78;;;3.35;;
48516;SDS011;34310;51.904;4.256;2024-01-07T01:00:39;3.78;;;3.42;;
48516;SDS011;34310;51.904;4.256;2024-01-07T01:03:06;4.75;;;3.40;;
48516;SDS011;34310;51.904;4.256;2024-01-07T01:05:32;4.07;;;3.65;;
48516;SDS011;34310;51.904;4.256;2024-01-07T01:07:59;3.58;;;3.28;;
48516;SDS011;34310;51.904;4.256;2024-01-07T01:10:25;4.15;;;3.75;;
48516;SDS011;34310;51.904;4.256;2024-01-07T01:12:52;4.22;;;3.83;;
48516;SDS011;34310;51.904;4.256;2024-01-07T01:15:18;4.25;;;3.85;;
48516;SDS011;34310;51.904;4.256;2024-01-07T01:17:45;3.65;;;3.35;;
48516;SDS011;34310;51.904;4.256;2024-01-07T01:20:11;4.38;;;3.38;;
48516;SDS011;34310;51.904;4.256;2024-01-07T01:22:38;3.90;;;3.60;;
48516;SDS011;34310;51.904;4.256;2024-01-07T01:25:05;3.95;;;3.60;;
48516;SDS011;34310;51.904;4.256;2024-01-07T01:27:31;4.00;;;3.60;;
48516;SDS011;34310;51.904;4.256;2024-01-07T01:29:58;3.70;;;3.30;;
48516;SDS011;34310;51.904;4.256;2024-01-07T01:32:24;3.83;;;3.45;;
48516;SDS011;34310;51.904;4.256;2024-01-07T01:34:51;4.03;;;3.63;;
48516;SDS011;34310;51.904;4.256;2024-01-07T01:37:17;3.88;;;3.53;;
48516;SDS011;34310;51.904;4.256;2024-01-07T01:39:44;4.10;;;3.70;;
48516;SDS011;34310;51.904;4.256;2024-01-07T01:42:10;4.15;;;3.75;;
48516;SDS011;34310;51.904;4.256;2024-01-07T01:44:37;4.15;;;3.75;;
48516;SDS011;34310;51.904;4.256;2024-01-07T01:47:03;3.65;;;3.30;;
48516;SDS011;34310;51.904;4.256;2024-01-07T01:49:33;3.90;;;3.50;;
48516;SDS011;34310;51.904;4.256;2024-01-07T01:52:00;3.90;;;3.50;;
48516;SDS011;34310;51.904;4.256;2024-01-07T01:54:26;3.88;;;3.58;;
48516;SDS011;34310;51.904;4.256;2024-01-07T01:56:53;4.13;;;3.78;;
48516;SDS011;34310;51.904;4.256;2024-01-07T01:59:20;3.72;;;3.42;;
48516;SDS011;34310;51.904;4.256;2024-01-07T02:01:47;4.30;;;3.90;;
48516;SDS011;34310;51.904;4.256;2024-01-07T02:04:14;3.80;;;3.50;;
48516;SDS011;34310;51.904;4.256;2024-01-07T02:06:41;3.80;;;3.50;;
48516;SDS011;34310;51.904;4.256;2024-01-07T02:09:08;3.90;;;3.50;;
48516;SDS011;34310;51.904;4.256;2024-01-07T02:11:34;3.85;;;3.38;;
48516;SDS011;34310;51.904;4.256;2024-01-07T02:14:01;4.22;;;3.83;;
48516;SDS011;34310;51.904;4.256;2024-01-07T02:16:27;4.00;;;3.67;;
48516;SDS011;34310;51.904;4.256;2024-01-07T02:18:54;3.88;;;3.58;;
48516;SDS011;34310;51.904;4.256;2024-01-07T02:21:20;3.50;;;3.20;;
48516;SDS011;34310;51.904;4.256;2024-01-07T02:23:47;4.00;;;3.60;;
48516;SDS011;34310;51.904;4.256;2024-01-07T02:26:13;4.68;;;4.25;;
48516;SDS011;34310;51.904;4.256;2024-01-07T02:28:40;4.45;;;3.90;;
48516;SDS011;34310;51.904;4.256;2024-01-07T02:31:06;4.15;;;3.80;;
48516;SDS011;34310;51.904;4.256;2024-01-07T02:33:33;3.85;;;3.55;;
48516;SDS011;34310;51.904;4.256;2024-01-07T02:36:00;4.20;;;3.80;;
48516;SDS011;34310;51.904;4.256;2024-01-07T02:38:26;4.10;;;3.70;;
48516;SDS011;34310;51.904;4.256;2024-01-07T02:40:53;4.07;;;3.78;;
48516;SDS011;34310;51.904;4.256;2024-01-07T02:43:19;4.10;;;3.70;;
48516;SDS011;34310;51.904;4.256;2024-01-07T02:45:46;3.90;;;3.60;;
48516;SDS011;34310;51.904;4.256;2024-01-07T02:48:12;4.20;;;3.80;;
48516;SDS011;34310;51.904;4.256;2024-01-07T02:50:39;4.63;;;4.22;;
48516;SDS011;34310;51.904;4.256;2024-01-07T02:53:05;4.20;;;3.80;;
48516;SDS011;34310;51.904;4.256;2024-01-07T02:55:32;4.28;;;3.88;;
48516;SDS011;34310;51.904;4.256;2024-01-07T02:57:58;4.28;;;3.80;;
48516;SDS011;34310;51.904;4.256;2024-01-07T03:00:25;4.70;;;4.20;;
48516;SDS011;34310;51.904;4.256;2024-01-07T03:02:51;4.47;;;4.07;;
48516;SDS011;34310;51.904;4.256;2024-01-07T03:05:18;4.70;;;4.30;;
48516;SDS011;34310;51.904;4.256;2024-01-07T03:07:44;4.30;;;3.90;;
48516;SDS011;34310;51.904;4.256;2024-01-07T03:10:11;4.10;;;3.70;;
48516;SDS011;34310;51.904;4.256;2024-01-07T03:12:37;4.15;;;3.75;;
48516;SDS011;34310;51.904;4.256;2024-01-07T03:15:04;4.03;;;3.67;;
48516;SDS011;34310;51.904;4.256;2024-01-07T03:17:31;4.50;;;4.10;;
48516;SDS011;34310;51.904;4.256;2024-01-07T03:19:58;4.35;;;3.95;;
48516;SDS011;34310;51.904;4.256;2024-01-07T03:22:24;4.45;;;4.05;;
48516;SDS011;34310;51.904;4.256;2024-01-07T03:24:51;4.68;;;4.28;;
48516;SDS011;34310;51.904;4.256;2024-01-07T03:27:17;4.15;;;3.83;;
48516;SDS011;34310;51.904;4.256;2024-01-07T03:29:44;4.85;;;4.38;;
48516;SDS011;34310;51.904;4.256;2024-01-07T03:32:10;4.43;;;4.03;;
48516;SDS011;34310;51.904;4.256;2024-01-07T03:34:38;4.55;;;4.15;;
48516;SDS011;34310;51.904;4.256;2024-01-07T03:37:05;4.60;;;4.20;;
48516;SDS011;34310;51.904;4.256;2024-01-07T03:39:32;4.60;;;4.13;;
48516;SDS011;34310;51.904;4.256;2024-01-07T03:41:59;3.95;;;3.63;;
48516;SDS011;34310;51.904;4.256;2024-01-07T03:44:25;4.50;;;4.10;;
48516;SDS011;34310;51.904;4.256;2024-01-07T03:46:52;4.25;;;3.72;;
48516;SDS011;34310;51.904;4.256;2024-01-07T03:49:18;4.43;;;3.78;;
48516;SDS011;34310;51.904;4.256;2024-01-07T03:51:45;4.40;;;4.00;;
48516;SDS011;34310;51.904;4.256;2024-01-07T03:54:11;4.20;;;3.80;;
48516;SDS011;34310;51.904;4.256;2024-01-07T03:56:38;4.32;;;3.92;;
48516;SDS011;34310;51.904;4.256;2024-01-07T03:59:04;4.20;;;3.80;;
48516;SDS011;34310;51.904;4.256;2024-01-07T04:01:31;4.20;;;3.80;;
48516;SDS011;34310;51.904;4.256;2024-01-07T04:03:57;4.22;;;3.83;;
48516;SDS011;34310;51.904;4.256;2024-01-07T04:06:25;4.30;;;3.90;;
48516;SDS011;34310;51.904;4.256;2024-01-07T04:08:51;4.18;;;3.78;;
48516;SDS011;34310;51.904;4.256;2024-01-07T04:11:18;4.22;;;3.83;;
48516;SDS011;34310;51.904;4.256;2024-01-07T04:13:44;4.53;;;3.92;;
48516;SDS011;34310;51.904;4.256;2024-01-07T04:16:17;4.47;;;4.07;;
48516;SDS011;34310;51.904;4.256;2024-01-07T04:18:45;4.72;;;4.25;;
48516;SDS011;34310;51.904;4.256;2024-01-07T04:21:18;4.03;;;3.65;;
48516;SDS011;34310;51.904;4.256;2024-01-07T04:23:44;4.03;;;3.63;;
48516;SDS011;34310;51.904;4.256;2024-01-07T04:26:11;4.30;;;3.90;;
48516;SDS011;34310;51.904;4.256;2024-01-07T04:28:40;3.88;;;3.58;;
48516;SDS011;34310;51.904;4.256;2024-01-07T04:31:07;4.38;;;3.92;;
48516;SDS011;34310;51.904;4.256;2024-01-07T04:33:34;4.20;;;3.80;;
48516;SDS011;34310;51.904;4.256;2024-01-07T04:36:01;4.20;;;3.80;;
48516;SDS011;34310;51.904;4.256;2024-01-07T04:38:27;3.75;;;3.45;;
48516;SDS011;34310;51.904;4.256;2024-01-07T04:40:54;3.78;;;3.47;;
48516;SDS011;34310;51.904;4.256;2024-01-07T04:43:20;4.22;;;3.83;;
48516;SDS011;34310;51.904;4.256;2024-01-07T04:45:46;4.70;;;4.30;;
48516;SDS011;34310;51.904;4.256;2024-01-07T04:48:13;4.10;;;3.80;;
48516;SDS011;34310;51.904;4.256;2024-01-07T04:50:40;4.03;;;3.72;;
48516;SDS011;34310;51.904;4.256;2024-01-07T04:53:07;4.30;;;3.90;;
48516;SDS011;34310;51.904;4.256;2024-01-07T04:55:34;4.13;;;3.75;;
48516;SDS011;34310;51.904;4.256;2024-01-07T04:58:02;4.43;;;4.03;;
48516;SDS011;34310;51.904;4.256;2024-01-07T05:00:28;4.78;;;4.30;;
48516;SDS011;34310;51.904;4.256;2024-01-07T05:02:55;4.70;;;4.30;;
48516;SDS011;34310;51.904;4.256;2024-01-07T05:05:21;4.45;;;4.05;;
48516;SDS011;34310;51.904;4.256;2024-01-07T05:07:48;4.47;;;4.07;;
48516;SDS011;34310;51.904;4.256;2024-01-07T05:10:14;4.78;;;4.28;;
48516;SDS011;34310;51.904;4.256;2024-01-07T05:12:41;4.38;;;3.97;;
48516;SDS011;34310;51.904;4.256;2024-01-07T05:15:07;4.80;;;4.40;;
48516;SDS011;34310;51.904;4.256;2024-01-07T05:17:34;4.75;;;4.35;;
48516;SDS011;34310;51.904;4.256;2024-01-07T05:20:01;5.20;;;4.70;;
48516;SDS011;34310;51.904;4.256;2024-01-07T05:22:27;5.13;;;4.63;;
48516;SDS011;34310;51.904;4.256;2024-01-07T05:24:54;5.07;;;4.57;;
48516;SDS011;34310;51.904;4.256;2024-01-07T05:27:20;4.53;;;4.13;;
48516;SDS011;34310;51.904;4.256;2024-01-07T05:29:47;4.90;;;4.40;;
48516;SDS011;34310;51.904;4.256;2024-01-07T05:32:13;4.95;;;4.53;;
48516;SDS011;34310;51.904;4.256;2024-01-07T05:34:40;4.50;;;4.10;;
48516;SDS011;34310;51.904;4.256;2024-01-07T05:37:06;5.07;;;4.57;;
48516;SDS011;34310;51.904;4.256;2024-01-07T05:39:33;4.53;;;4.13;;
48516;SDS011;34310;51.904;4.256;2024-01-07T05:41:59;4.75;;;4.35;;
48516;SDS011;34310;51.904;4.256;2024-01-07T05:44:26;4.97;;;4.47;;
48516;SDS011;34310;51.904;4.256;2024-01-07T05:46:55;4.60;;;4.20;;
48516;SDS011;34310;51.904;4.256;2024-01-07T05:49:21;5.05;;;4.55;;
48516;SDS011;34310;51.904;4.256;2024-01-07T05:51:48;5.20;;;4.70;;
48516;SDS011;34310;51.904;4.256;2024-01-07T05:54:14;5.05;;;4.55;;
48516;SDS011;34310;51.904;4.256;2024-01-07T05:56:41;4.78;;;4.38;;
48516;SDS011;34310;51.904;4.256;2024-01-07T05:59:08;5.20;;;4.70;;
48516;SDS011;34310;51.904;4.256;2024-01-07T06:01:34;4.78;;;4.38;;
48516;SDS011;34310;51.904;4.256;2024-01-07T06:04:01;4.95;;;4.43;;
48516;SDS011;34310;51.904;4.256;2024-01-07T06:06:28;4.25;;;3.85;;
48516;SDS011;34310;51.904;4.256;2024-01-07T06:08:55;4.85;;;4.35;;
48516;SDS011;34310;51.904;4.256;2024-01-07T06:11:21;4.57;;;4.18;;
48516;SDS011;34310;51.904;4.256;2024-01-07T06:13:48;5.00;;;4.50;;
48516;SDS011;34310;51.904;4.256;2024-01-07T06:16:14;5.10;;;4.65;;
48516;SDS011;34310;51.904;4.256;2024-01-07T06:18:41;5.32;;;4.82;;
48516;SDS011;34310;51.904;4.256;2024-01-07T06:21:08;4.65;;;4.25;;
48516;SDS011;34310;51.904;4.256;2024-01-07T06:23:34;5.35;;;4.85;;
48516;SDS011;34310;51.904;4.256;2024-01-07T06:26:04;4.95;;;4.53;;
48516;SDS011;34310;51.904;4.256;2024-01-07T06:28:31;5.85;;;5.05;;
48516;SDS011;34310;51.904;4.256;2024-01-07T06:30:58;5.30;;;4.80;;
48516;SDS011;34310;51.904;4.256;2024-01-07T06:33:25;5.22;;;4.72;;
48516;SDS011;34310;51.904;4.256;2024-01-07T06:35:52;5.20;;;4.50;;
48516;SDS011;34310;51.904;4.256;2024-01-07T06:38:18;5.93;;;4.80;;
48516;SDS011;34310;51.904;4.256;2024-01-07T06:40:45;5.90;;;5.30;;
48516;SDS011;34310;51.904;4.256;2024-01-07T06:43:11;5.38;;;4.88;;
48516;SDS011;34310;51.904;4.256;2024-01-07T06:45:38;5.53;;;5.03;;
48516;SDS011;34310;51.904;4.256;2024-01-07T06:48:04;5.47;;;4.97;;
48516;SDS011;34310;51.904;4.256;2024-01-07T06:50:31;5.60;;;5.10;;
48516;SDS011;34310;51.904;4.256;2024-01-07T06:52:58;5.63;;;5.10;;
48516;SDS011;34310;51.904;4.256;2024-01-07T06:55:24;6.05;;;5.45;;
48516;SDS011;34310;51.904;4.256;2024-01-07T06:57:51;5.88;;;5.38;;
48516;SDS011;34310;51.904;4.256;2024-01-07T07:00:17;7.05;;;5.95;;
48516;SDS011;34310;51.904;4.256;2024-01-07T07:02:44;5.70;;;5.07;;
48516;SDS011;34310;51.904;4.256;2024-01-07T07:05:10;5.70;;;5.20;;
48516;SDS011;34310;51.904;4.256;2024-01-07T07:07:37;5.60;;;5.10;;
48516;SDS011;34310;51.904;4.256;2024-01-07T07:10:03;6.25;;;5.65;;
48516;SDS011;34310;51.904;4.256;2024-01-07T07:12:30;6.18;;;5.57;;
48516;SDS011;34310;51.904;4.256;2024-01-07T07:14:57;5.82;;;5.32;;
48516;SDS011;34310;51.904;4.256;2024-01-07T07:17:23;6.35;;;5.50;;
48516;SDS011;34310;51.904;4.256;2024-01-07T07:19:50;5.53;;;5.03;;
48516;SDS011;34310;51.904;4.256;2024-01-07T07:22:16;6.47;;;5.88;;
48516;SDS011;34310;51.904;4.256;2024-01-07T07:24:43;6.03;;;5.43;;
48516;SDS011;34310;51.904;4.256;2024-01-07T07:27:09;5.90;;;5.40;;
48516;SDS011;34310;51.904;4.256;2024-01-07T07:29:36;5.85;;;5.35;;
48516;SDS011;34310;51.904;4.256;2024-01-07T07:32:02;6.00;;;5.40;;
48516;SDS011;34310;51.904;4.256;2024-01-07T07:34:29;6.13;;;5.53;;
48516;SDS011;34310;51.904;4.256;2024-01-07T07:36:56;6.28;;;5.68;;
48516;SDS011;34310;51.904;4.256;2024-01-07T07:39:22;6.05;;;5.45;;
48516;SDS011;34310;51.904;4.256;2024-01-07T07:41:49;6.25;;;5.55;;
48516;SDS011;34310;51.904;4.256;2024-01-07T07:44:15;6.00;;;5.50;;
48516;SDS011;34310;51.904;4.256;2024-01-07T07:46:42;5.78;;;5.28;;
48516;SDS011;34310;51.904;4.256;2024-01-07T07:49:08;5.90;;;5.30;;
48516;SDS011;34310;51.904;4.256;2024-01-07T07:51:35;5.25;;;4.75;;
48516;SDS011;34310;51.904;4.256;2024-01-07T07:54:01;5.70;;;5.00;;
48516;SDS011;34310;51.904;4.256;2024-01-07T07:56:27;5.43;;;4.95;;
48516;SDS011;34310;51.904;4.256;2024-01-07T07:58:54;5.07;;;4.57;;
48516;SDS011;34310;51.904;4.256;2024-01-07T08:01:20;5.55;;;5.00;;
48516;SDS011;34310;51.904;4.256;2024-01-07T08:03:47;5.60;;;5.10;;
48516;SDS011;34310;51.904;4.256;2024-01-07T08:06:14;5.82;;;5.22;;
48516;SDS011;34310;51.904;4.256;2024-01-07T08:08:40;6.18;;;5.22;;
48516;SDS011;34310;51.904;4.256;2024-01-07T08:11:07;4.90;;;4.40;;
48516;SDS011;34310;51.904;4.256;2024-01-07T08:13:34;5.50;;;4.95;;
48516;SDS011;34310;51.904;4.256;2024-01-07T08:16:01;5.70;;;5.10;;
48516;SDS011;34310;51.904;4.256;2024-01-07T08:18:28;5.43;;;4.93;;
48516;SDS011;34310;51.904;4.256;2024-01-07T08:20:55;5.43;;;4.93;;
48516;SDS011;34310;51.904;4.256;2024-01-07T08:23:21;5.63;;;5.03;;
48516;SDS011;34310;51.904;4.256;2024-01-07T08:25:48;5.15;;;4.65;;
48516;SDS011;34310;51.904;4.256;2024-01-07T08:28:14;5.82;;;4.70;;
48516;SDS011;34310;51.904;4.256;2024-01-07T08:30:41;5.20;;;4.70;;
48516;SDS011;34310;51.904;4.256;2024-01-07T08:33:07;5.10;;;4.60;;
48516;SDS011;34310;51.904;4.256;2024-01-07T08:35:34;5.18;;;4.68;;
48516;SDS011;34310;51.904;4.256;2024-01-07T08:38:01;6.45;;;4.80;;
48516;SDS011;34310;51.904;4.256;2024-01-07T08:40:27;5.05;;;4.55;;
48516;SDS011;34310;51.904;4.256;2024-01-07T08:42:53;5.25;;;4.75;;
48516;SDS011;34310;51.904;4.256;2024-01-07T08:45:20;5.38;;;4.88;;
48516;SDS011;34310;51.904;4.256;2024-01-07T08:47:47;5.30;;;4.70;;
48516;SDS011;34310;51.904;4.256;2024-01-07T08:50:13;5.30;;;4.80;;
48516;SDS011;34310;51.904;4.256;2024-01-07T08:52:40;5.65;;;4.80;;
48516;SDS011;34310;51.904;4.256;2024-01-07T08:55:07;5.28;;;4.68;;
48516;SDS011;34310;51.904;4.256;2024-01-07T08:57:34;5.22;;;4.53;;
48516;SDS011;34310;51.904;4.256;2024-01-07T09:00:00;6.72;;;4.80;;
48516;SDS011;34310;51.904;4.256;2024-01-07T09:02:27;9.38;;;5.20;;
48516;SDS011;34310;51.904;4.256;2024-01-07T09:04:53;8.85;;;5.22;;
48516;SDS011;34310;51.904;4.256;2024-01-07T09:07:20;5.70;;;5.20;;
48516;SDS011;34310;51.904;4.256;2024-01-07T09:09:46;5.95;;;5.30;;
48516;SDS011;34310;51.904;4.256;2024-01-07T09:12:13;6.63;;;5.20;;
48516;SDS011;34310;51.904;4.256;2024-01-07T09:14:39;6.03;;;4.97;;
48516;SDS011;34310;51.904;4.256;2024-01-07T09:17:06;6.85;;;5.55;;
48516;SDS011;34310;51.904;4.256;2024-01-07T09:19:32;7.13;;;5.00;;
48516;SDS011;34310;51.904;4.256;2024-01-07T09:21:59;6.30;;;5.43;;
48516;SDS011;34310;51.904;4.256;2024-01-07T09:24:25;5.93;;;4.88;;
48516;SDS011;34310;51.904;4.256;2024-01-07T09:26:52;8.07;;;5.20;;
48516;SDS011;34310;51.904;4.256;2024-01-07T09:29:18;8.20;;;5.35;;
48516;SDS011;34310;51.904;4.256;2024-01-07T09:31:45;5.50;;;4.80;;
48516;SDS011;34310;51.904;4.256;2024-01-07T09:34:12;6.13;;;5.38;;
48516;SDS011;34310;51.904;4.256;2024-01-07T09:36:38;6.13;;;5.10;;
48516;SDS011;34310;51.904;4.256;2024-01-07T09:39:05;6.22;;;5.30;;
48516;SDS011;34310;51.904;4.256;2024-01-07T09:41:32;8.18;;;5.15;;
48516;SDS011;34310;51.904;4.256;2024-01-07T09:43:59;7.50;;;5.80;;
48516;SDS011;34310;51.904;4.256;2024-01-07T09:46:25;7.25;;;5.25;;
48516;SDS011;34310;51.904;4.256;2024-01-07T09:48:55;6.57;;;5.13;;
48516;SDS011;34310;51.904;4.256;2024-01-07T09:51:22;5.57;;;5.03;;
48516;SDS011;34310;51.904;4.256;2024-01-07T09:53:49;5.90;;;4.72;;
48516;SDS011;34310;51.904;4.256;2024-01-07T09:56:23;6.35;;;5.18;;
48516;SDS011;34310;51.904;4.256;2024-01-07T09:58:51;5.53;;;4.90;;
48516;SDS011;34310;51.904;4.256;2024-01-07T10:01:18;5.88;;;5.13;;
48516;SDS011;34310;51.904;4.256;2024-01-07T10:03:45;5.63;;;5.07;;
48516;SDS011;34310;51.904;4.256;2024-01-07T10:06:12;7.22;;;4.85;;
48516;SDS011;34310;51.904;4.256;2024-01-07T10:08:39;10.45;;;5.00;;
48516;SDS011;34310;51.904;4.256;2024-01-07T10:11:06;5.72;;;4.53;;
48516;SDS011;34310;51.904;4.256;2024-01-07T10:13:33;5.35;;;4.85;;
48516;SDS011;34310;51.904;4.256;2024-01-07T10:15:59;5.60;;;4.80;;
48516;SDS011;34310;51.904;4.256;2024-01-07T10:18:26;4.88;;;4.28;;
48516;SDS011;34310;51.904;4.256;2024-01-07T10:20:53;6.15;;;4.80;;
48516;SDS011;34310;51.904;4.256;2024-01-07T10:23:19;4.90;;;4.05;;
48516;SDS011;34310;51.904;4.256;2024-01-07T10:25:46;6.35;;;4.28;;
48516;SDS011;34310;51.904;4.256;2024-01-07T10:28:13;7.13;;;4.45;;
48516;SDS011;34310;51.904;4.256;2024-01-07T10:30:39;5.07;;;4.05;;
48516;SDS011;34310;51.904;4.256;2024-01-07T10:33:06;4.75;;;4.22;;
48516;SDS011;34310;51.904;4.256;2024-01-07T10:35:34;5.22;;;4.00;;
48516;SDS011;34310;51.904;4.256;2024-01-07T10:38:03;4.72;;;4.10;;
48516;SDS011;34310;51.904;4.256;2024-01-07T10:40:30;4.10;;;3.70;;
48516;SDS011;34310;51.904;4.256;2024-01-07T10:42:57;4.57;;;3.90;;
48516;SDS011;34310;51.904;4.256;2024-01-07T10:45:24;4.57;;;3.90;;
48516;SDS011;34310;51.904;4.256;2024-01-07T10:47:54;4.78;;;3.90;;
48516;SDS011;34310;51.904;4.256;2024-01-07T10:50:26;6.78;;;4.85;;
48516;SDS011;34310;51.904;4.256;2024-01-07T10:52:57;7.10;;;4.00;;
48516;SDS011;34310;51.904;4.256;2024-01-07T10:55:29;6.25;;;3.80;;
48516;SDS011;34310;51.904;4.256;2024-01-07T10:58:00;4.38;;;3.95;;
48516;SDS011;34310;51.904;4.256;2024-01-07T11:00:27;6.80;;;3.97;;
48516;SDS011;34310;51.904;4.256;2024-01-07T11:05:30;5.13;;;3.70;;
48516;SDS011;34310;51.904;4.256;2024-01-07T11:10:53;6.40;;;4.22;;
48516;SDS011;34310;51.904;4.256;2024-01-07T11:13:31;8.63;;;3.60;;
48516;SDS011;34310;51.904;4.256;2024-01-07T11:15:58;4.22;;;3.53;;
48516;SDS011;34310;51.904;4.256;2024-01-07T11:18:24;5.05;;;3.40;;
48516;SDS011;34310;51.904;4.256;2024-01-07T11:20:52;5.30;;;3.53;;
48516;SDS011;34310;51.904;4.256;2024-01-07T11:23:26;5.18;;;3.58;;
48516;SDS011;34310;51.904;4.256;2024-01-07T11:25:53;6.00;;;3.58;;
48516;SDS011;34310;51.904;4.256;2024-01-07T11:28:19;4.53;;;3.38;;
48516;SDS011;34310;51.904;4.256;2024-01-07T11:31:09;5.68;;;3.60;;
48516;SDS011;34310;51.904;4.256;2024-01-07T11:33:36;3.97;;;3.38;;
48516;SDS011;34310;51.904;4.256;2024-01-07T11:36:06;3.30;;;3.00;;
48516;SDS011;34310;51.904;4.256;2024-01-07T11:38:36;3.92;;;3.00;;
48516;SDS011;34310;51.904;4.256;2024-01-07T11:41:03;4.57;;;3.50;;
48516;SDS011;34310;51.904;4.256;2024-01-07T11:43:32;8.35;;;3.30;;
48516;SDS011;34310;51.904;4.256;2024-01-07T11:45:58;3.72;;;3.13;;
48516;SDS011;34310;51.904;4.256;2024-01-07T11:48:25;4.63;;;3.42;;
48516;SDS011;34310;51.904;4.256;2024-01-07T11:50:52;3.50;;;3.05;;
48516;SDS011;34310;51.904;4.256;2024-01-07T11:53:21;6.13;;;3.45;;
48516;SDS011;34310;51.904;4.256;2024-01-07T11:55:48;4.85;;;2.80;;
48516;SDS011;34310;51.904;4.256;2024-01-07T11:58:14;4.20;;;2.97;;
48516;SDS011;34310;51.904;4.256;2024-01-07T12:00:41;4.55;;;3.30;;
48516;SDS011;34310;51.904;4.256;2024-01-07T12:03:08;3.40;;;3.00;;
48516;SDS011;34310;51.904;4.256;2024-01-07T12:05:34;3.65;;;3.10;;
48516;SDS011;34310;51.904;4.256;2024-01-07T12:08:01;4.07;;;2.85;;
48516;SDS011;34310;51.904;4.256;2024-01-07T12:10:27;7.97;;;2.72;;
48516;SDS011;34310;51.904;4.256;2024-01-07T12:12:54;4.90;;;2.85;;
48516;SDS011;34310;51.904;4.256;2024-01-07T12:15:21;3.75;;;2.67;;
48516;SDS011;34310;51.904;4.256;2024-01-07T12:17:54;3.30;;;2.72;;
48516;SDS011;34310;51.904;4.256;2024-01-07T12:20:22;4.53;;;2.53;;
48516;SDS011;34310;51.904;4.256;2024-01-07T12:22:48;3.03;;;2.53;;
48516;SDS011;34310;51.904;4.256;2024-01-07T12:25:20;7.45;;;2.90;;
48516;SDS011;34310;51.904;4.256;2024-01-07T12:27:47;4.60;;;2.72;;
48516;SDS011;34310;51.904;4.256;2024-01-07T12:30:14;3.55;;;2.63;;
48516;SDS011;34310;51.904;4.256;2024-01-07T12:32:41;3.53;;;2.65;;
48516;SDS011;34310;51.904;4.256;2024-01-07T12:35:08;4.22;;;2.50;;
48516;SDS011;34310;51.904;4.256;2024-01-07T12:37:35;5.30;;;2.50;;
48516;SDS011;34310;51.904;4.256;2024-01-07T12:40:03;3.25;;;2.60;;
48516;SDS011;34310;51.904;4.256;2024-01-07T12:42:30;3.65;;;2.67;;
48516;SDS011;34310;51.904;4.256;2024-01-07T12:44:57;3.72;;;2.92;;
48516;SDS011;34310;51.904;4.256;2024-01-07T12:47:24;4.00;;;3.22;;
48516;SDS011;34310;51.904;4.256;2024-01-07T12:49:50;4.65;;;3.10;;
48516;SDS011;34310;51.904;4.256;2024-01-07T12:52:17;3.85;;;3.17;;
48516;SDS011;34310;51.904;4.256;2024-01-07T12:54:43;5.22;;;3.50;;
48516;SDS011;34310;51.904;4.256;2024-01-07T12:57:10;5.30;;;3.10;;
48516;SDS011;34310;51.904;4.256;2024-01-07T12:59:36;4.22;;;3.22;;
48516;SDS011;34310;51.904;4.256;2024-01-07T13:02:03;3.70;;;3.13;;
48516;SDS011;34310;51.904;4.256;2024-01-07T13:04:30;4.72;;;3.13;;
48516;SDS011;34310;51.904;4.256;2024-01-07T13:06:57;4.60;;;3.70;;
48516;SDS011;34310;51.904;4.256;2024-01-07T13:09:23;5.32;;;3.60;;
48516;SDS011;34310;51.904;4.256;2024-01-07T13:11:50;5.20;;;3.47;;
48516;SDS011;34310;51.904;4.256;2024-01-07T13:14:16;4.68;;;3.40;;
48516;SDS011;34310;51.904;4.256;2024-01-07T13:16:43;4.65;;;3.45;;
48516;SDS011;34310;51.904;4.256;2024-01-07T13:19:09;3.72;;;2.97;;
48516;SDS011;34310;51.904;4.256;2024-01-07T13:21:38;3.55;;;3.20;;
48516;SDS011;34310;51.904;4.256;2024-01-07T13:24:08;4.10;;;2.95;;
48516;SDS011;34310;51.904;4.256;2024-01-07T13:26:34;3.92;;;3.08;;
48516;SDS011;34310;51.904;4.256;2024-01-07T13:29:01;3.60;;;3.08;;
48516;SDS011;34310;51.904;4.256;2024-01-07T13:31:27;4.20;;;2.83;;
48516;SDS011;34310;51.904;4.256;2024-01-07T13:33:54;4.30;;;3.05;;
48516;SDS011;34310;51.904;4.256;2024-01-07T13:36:21;3.55;;;2.90;;
48516;SDS011;34310;51.904;4.256;2024-01-07T13:38:47;4.35;;;3.00;;
48516;SDS011;34310;51.904;4.256;2024-01-07T13:41:14;3.20;;;2.42;;
48516;SDS011;34310;51.904;4.256;2024-01-07T13:43:40;3.95;;;2.97;;
48516;SDS011;34310;51.904;4.256;2024-01-07T13:46:07;3.63;;;2.70;;
48516;SDS011;34310;51.904;4.256;2024-01-07T13:48:34;3.50;;;2.60;;
48516;SDS011;34310;51.904;4.256;2024-01-07T13:51:01;4.40;;;3.00;;
48516;SDS011;34310;51.904;4.256;2024-01-07T13:53:27;4.60;;;2.85;;
48516;SDS011;34310;51.904;4.256;2024-01-07T13:55:54;2.88;;;2.50;;
48516;SDS011;34310;51.904;4.256;2024-01-07T13:58:21;2.92;;;2.25;;
48516;SDS011;34310;51.904;4.256;2024-01-07T14:00:47;2.92;;;2.25;;
48516;SDS011;34310;51.904;4.256;2024-01-07T14:03:14;4.78;;;2.38;;
48516;SDS011;34310;51.904;4.256;2024-01-07T14:05:40;5.30;;;2.40;;
48516;SDS011;34310;51.904;4.256;2024-01-07T14:08:07;3.13;;;2.55;;
48516;SDS011;34310;51.904;4.256;2024-01-07T14:10:34;2.78;;;2.20;;
48516;SDS011;34310;51.904;4.256;2024-01-07T14:13:00;3.08;;;2.25;;
48516;SDS011;34310;51.904;4.256;2024-01-07T14:15:27;2.80;;;2.17;;
48516;SDS011;34310;51.904;4.256;2024-01-07T14:17:53;4.35;;;2.03;;
48516;SDS011;34310;51.904;4.256;2024-01-07T14:20:20;2.45;;;1.92;;
48516;SDS011;34310;51.904;4.256;2024-01-07T14:22:47;2.03;;;1.67;;
48516;SDS011;34310;51.904;4.256;2024-01-07T14:25:13;5.43;;;2.33;;
48516;SDS011;34310;51.904;4.256;2024-01-07T14:27:40;3.75;;;2.13;;
48516;SDS011;34310;51.904;4.256;2024-01-07T14:30:07;4.53;;;2.03;;
48516;SDS011;34310;51.904;4.256;2024-01-07T14:32:33;2.90;;;2.08;;
48516;SDS011;34310;51.904;4.256;2024-01-07T14:35:00;2.58;;;1.90;;
48516;SDS011;34310;51.904;4.256;2024-01-07T14:37:26;3.28;;;1.92;;
48516;SDS011;34310;51.904;4.256;2024-01-07T14:39:53;1.90;;;1.67;;
48516;SDS011;34310;51.904;4.256;2024-01-07T14:42:20;7.70;;;2.05;;
48516;SDS011;34310;51.904;4.256;2024-01-07T14:44:46;4.70;;;1.75;;
48516;SDS011;34310;51.904;4.256;2024-01-07T14:47:16;4.65;;;1.95;;
48516;SDS011;34310;51.904;4.256;2024-01-07T14:49:43;2.78;;;1.85;;
48516;SDS011;34310;51.904;4.256;2024-01-07T14:52:10;2.67;;;1.70;;
48516;SDS011;34310;51.904;4.256;2024-01-07T14:54:36;2.95;;;1.95;;